Aeroboteco Virtual Airline

Aeroboteco Virtual Airlines! Uma nuvem a frente.



 INFORMAÇÕES METEOROLÓGICAS
METAR FOR LEZL
ADDS - METARS form results

(1018 UTC 16 January 2019)
Data provider http://aviationweather.gov/metar/data/
 
METAR text: LEZL 161000Z 02004KT 300V070 CAVOK 10/07 Q1021 NOSIG
Conditions at: LEZL (SEVILLA (CIV/MIL, ES) observed 1000 UTC 16 January 2019
Temperature: 10.0°C (50°F)
Dewpoint: 7.0°C (45°F) [RH = 82%]
Pressure (altimeter): 30.15 inches Hg (1021.0 mb)
Winds: from the NNE (20 degrees) at 5 MPH (4 knots; 2.1 m/s)
Visibility: 6 or more miles (10+ km)
Ceiling: ceiling and visibility are OK
Clouds: unknown
Weather: no significant weather observed at this time

METAR text: LEZL 160930Z 02003KT 320V060 9000 NSC 08/06 Q1021 NOSIG
Conditions at: LEZL (SEVILLA (CIV/MIL, ES) observed 0930 UTC 16 January 2019
Temperature: 8.0°C (46°F)
Dewpoint: 6.0°C (43°F) [RH = 87%]
Pressure (altimeter): 30.15 inches Hg (1021.0 mb)
Winds: from the NNE (20 degrees) at 3 MPH (3 knots; 1.5 m/s)
Visibility: 6 miles ( 9 km)
Ceiling: at least 12,000 feet AGL
Clouds: sky clear below 12,000 feet AGL
Weather: no significant weather observed at this time

Forecast for: LEZL (SEVILLA (CIV/MIL, ES)
Text: TAF LEZL 160800Z 1609/1709 03003KT 9999 BKN040 TX15/1615Z TN04/1706Z
Forecast period: 0900 UTC 16 January 2019 to 0900 UTC 17 January 2019
Forecast type: FROM: standard forecast or significant change
Winds: from the NNE (30 degrees) at 3 MPH (3 knots; 1.5 m/s)
Visibility: 6 or more miles 10+ km)
Ceiling: 4000 feet AGL
Clouds: broken clouds at 4000 feet AGL
Weather: no significant weather forecast for this period

 MAPA DO AEROPORTO

 INFORMAÇÕES DA PISTA
Pista 09 Tamanho da pista 11024 ft Largura da pista 148 ft
Elevação da pista 83 ft Ranhura da pista 0 ft Proa da pista 90
Pista 27 Tamanho da pista 11024 ft Largura da pista 148 ft
Elevação da pista 111 ft Ranhura da pista 0 ft Proa da pista 270

 FREQUÊNCIAS DO AEROPORTO
Tipo APP Nome APP Frequência 120 MHZ
Tipo ATIS Nome ATIS Frequência 118.175 MHZ
Tipo GND Nome GND Frequência 121.7 MHZ
Tipo TWR Nome TWR Frequência 118.1 MHZ

 AUXÍLIOS DE NAVEGAÇÃO PRÓXIMOS AO AEROPORTO
Tipo NDB Nome Sevilla Frequência 420 KHZ
Tipo VOR-DME Nome Sevilla Frequência 113700 KHZ